Terminal Aerodrome Forecast
Issued by NWS

Home | Current Version | Previous Version | Graphics & Text | Print | Product List | Glossary On
Versions: 1 2 3 4 5 6 7 8 9 10 11 12 13
000
FTUS43 KABR 152332
TAFMBG
TAF
KMBG 152332Z 1600/1624 34014KT P6SM SKC
     FM160200 31005KT P6SM SKC
     FM161400 20007KT P6SM SCT250=

USA.gov is the U.S. government's official web portal to all federal, state and local government web resources and services.